@aerospacetalk
صفحه 3 از 82 نخستنخست 1234567891318234363 ... آخرینآخرین
نمایش نتایج: از شماره 21 تا 30 , از مجموع 819

جستار: سالگرد سانحه 727 ايران اير EP-IRP - ارومیه

  1. #21
    Aviation Electrician's Mate
    تاریخ عضویت
    Sep 2009
    محل سکونت
    tehran
    نوشته ها
    147
    سپاسگزاری
    6,357
    سپاسگزاری شده : 2,310 بار در 147 پست
    قدرت امتیازدهی
    32
    Array

    پیش فرض پاسخ : سانحه 727 ايران اير

    TAF

    OITR 090500Z 0906/1012 20004MPS 2000 SN BR BKN020 OVC090
    TEMPO 0906/0921 27006MPS 0800 SN BR FEW030CB SCT035 OVC080
    BECMG 0918/0920 2000 BR BKN010
    BECMG 1006/1008 6000 FEW035 SCT100
    METARS:

    OITR 091700Z 33004KT 0600 +SN SCT015 SCT020 OVC060 00/00 Q1016
    OITR 091650Z 33004KT 0600 +SN SCT015 SCT020 OVC060 00/00 Q1016
    OITR 091600Z 26004KT 0800 SN SCT015 SCT020 OVC060 00/00 Q1016
    OITR 091550Z 26004KT 0800 SN SCT015 SCT020 OVC060 00/00 Q1016

    OITR 091500Z 24006KT 0800 +SN SCT015 SCT020 OVC060 00/00 Q1015
    OITR 091450Z 24006KT 0800 +SN SCT015 SCT020 OVC060 00/00 Q1015
    OITR 091400Z 29004KT 0800 +SN SCT015 SCT020 OVC060 00/00 Q1015
    OITR 091350Z 29004KT 0800 +SN SCT015 SCT020 OVC060 00/00 Q1015


    در بنبست هم راه آسمان باز است پرواز بیاموز
    (دکتر شریعتی)

  2. #22
    هوانورد ارشد
    تاریخ عضویت
    Jul 2009
    نوشته ها
    449
    سپاسگزاری
    13,579
    سپاسگزاری شده : 6,790 بار در 448 پست
    قدرت امتیازدهی
    49
    Array

    پیش فرض پاسخ : سانحه 727 ايران اير

    مديركل روابط عمومي سازمان هواپيمايي كشوري اعلام كرد:


    جزئيات بيشتري از سقوط هواپيماي مسافربري در اروميه


    خبرگزاري فارس: مديركل روابط عمومي سازمان هواپيمايي كشوري جزئيات بيشتري از سقوط هواپيماي مسافربري بوئينگ ايران اير ارائه كرد.




    به گزارش خبرگزاري فارس، عباس مصيبي مديركل روابط عمومي سازمان هواپيمايي كشوري در گفتوگوي زنده با اخبار 21 شبكه اول سيما گفت: يك فروند هواپيماي بوئينگ 727 ايران اير در ساعت 19:45 امروز يكشنبه 19 ديماه سالجاري در نزديك روستاي كليسا كندي اروميه سقوط كرد.
    وي افزود: ستاد بحران استان آذربايجان غربي بالافاصله تشكيل جلسه داد و مأموران امداد و نجات در محل سانحه حضور پيدا كردند و اطلاعات بعدي از طريق اين ستاد اعلام خواهد شد.
    مديركل روابط عمومي سازمان هواپيمايي كشوري تعداد مسافران اين هواپيما را 95 نفر اعلام كرد و گفت: اين هواپيما با يك ساعت تأخير از تهران به مسير اروميه پرواز كرده بود كه ظاهراً به دليل شرايط نامناسب جوي دچار سانحه شده است.
    اين مقام مسئول در مورد تعداد تلفات ناشي از اين سانحه سخني به ميان نياورد.

    http://www.farsnews.com/newstext.php?nn=8910191648

  3. #23
    شورای هوانوردی
    تاریخ عضویت
    Dec 2006
    محل سکونت
    سيستان و بلوچستان
    نوشته ها
    11,120
    سپاسگزاری
    17,262
    سپاسگزاری شده : 167,985 بار در 8,885 پست
    قدرت امتیازدهی
    1292
    Array

    پیش فرض پاسخ : سانحه 727 ايران اير

    هماي 277
    بويينگ 727
    EP-IRP

    زمان سانحه :19:45 يكشنبه مورخ 19/10/89

    تعداد مسافران : 95 نفر

    محل سانحه : 5 مايلي فرودگاه اروميه - پس از انصراف از تقرب و برخورد با كوه


    اين هواپيما با 95 مسافر قرار بود راس ساعت 16 بعد ازظهر پرواز كند كه به دليل بدي آب و هوا با دو ساعت تاخير در ساعت 18 فرودگاه مهرآباد تهران را به مقصد اروميه ترك ميكند.

  4. #24
    Aerographer's Mate
    تاریخ عضویت
    Sep 2010
    محل سکونت
    Tehran
    نوشته ها
    386
    سپاسگزاری
    11,951
    سپاسگزاری شده : 5,149 بار در 376 پست
    قدرت امتیازدهی
    61
    Array

    پیش فرض پاسخ : سانحه 727 ايران اير

    تو برنامه زده که سرمهماندار این پرواز آقای فخرالدین صالحی بودن (البته اگه تغییراتی نکرده باشه)
    ایشون از دوستان پدرم هستن

  5. #25
    کارشناس ایمنی هوانوردی
    تاریخ عضویت
    Jan 2010
    نوشته ها
    1,164
    سپاسگزاری
    2,573
    سپاسگزاری شده : 16,829 بار در 1,153 پست
    قدرت امتیازدهی
    146
    Array

    پیش فرض پاسخ : سانحه 727 ايران اير

    دوستان عزیزم
    خواهشمندم به دلیل اهمیت موضوع و شلوغی بیش از حد سایت از هر گونه اظهار نظر احساسی و ارائه جملات و طرح سوالات کم مربوط جداً خودداری فرمایند

    پیشاپیش از همکاری شما دوستان عزیزم تشکر می کنم.
    Quality First
    Safety Always

  6. #26
    هوانورد ارشد
    تاریخ عضویت
    Jul 2009
    نوشته ها
    449
    سپاسگزاری
    13,579
    سپاسگزاری شده : 6,790 بار در 448 پست
    قدرت امتیازدهی
    49
    Array

    پیش فرض پاسخ : سانحه 727 ايران اير

    94 مسافر، تعداد سرنشينان هواپيماي ساقط شده
    اروميه- هواپيماي مسافربري ساقط شده در اطراف اروميه با 94 مسافر كه از مبدا تهران در ساعت 18 به پرواز درآمده بود، مربوط به شركت هواپيمايي ايران اير و به شماره پرواز 727 بوده است.

    به گزارش ايرنا، هواپيماي مسافربري ساقط شده در اطراف اروميه كه از مبدا تهران در حركت بود، مربوط به شركت هواپيمايي ايران اير و به شماره پرواز 727 بوده است.
    اين هواپيما با 94 مسافر قرار بود راس ساعت 16 بعد ازظهر پرواز كند كه به دليل بدي آب و هوا با دو ساعت تاخير در ساعت 18 فرودگاه مهرآباد تهران را به مقصد اروميه ترك ميكند.
    يك منبع مطلع به خبرنگار ايرنا گفت: خلبان اين هواپيما كاپيتان دادرس، كمك خلبان آن كاپيتان توفيقي و مهندس پرواز نيز آقاي رستگار بوده است.
    تا اين لحظه اخبار دقيقي از سرنوشت مسافران و خدمه هواپيما دريافت نشده است.
    بر اساس اطلاعات اوليه اين هواپيما درنزديكي روستاي ترمني در ساحل جنوبي درياچه اروميه سقوط كرده است.
    اهالي روستاهاي همجوار از فرود يك شي نوراني در نزديكي درياچه اروميه سخن ميگويند.
    بر اساس گزارشهاي دريافتي اين هواپيما براي فرود در موقعيت فرودگاه اروميه قرار گرفته اما به دليل شرايط نامساعد جوي موفق به فرود نشده، و پس از دور شدن از فرودگاه براي قرار گرفتن در موقعيت فرود مجدد، به ناگاه از صفحه رادار محو شده است.

    http://www.irna.ir/NewsShow.aspx?NID=30178391

  7. #27
    مدیر سایت
    تاریخ عضویت
    Dec 2005
    محل سکونت
    Tomcat Alley
    نوشته ها
    2,483
    سپاسگزاری
    44,194
    سپاسگزاری شده : 32,264 بار در 1,846 پست
    قدرت امتیازدهی
    288
    Array

    پیش فرض پاسخ : سانحه 727 ايران اير

    از دوستان خواهش میکنم فقط اگر خبر موثقی دارنددر این تاپیک پست بدهند .به دلیل لینک شدن سایت در بسیاری از سایتها بازدید از این تاپیک خیلی بالا رفته و لود روی سرور های سایت زیاد شده.
    خواهش میکنم برای اینکه بتونیم خبر رسانی درست و صحیح داشته باشیم از دادن پستهای دیگر خودداری کنید.
    دوستان دعا کنید که تعداد از دست رفتگان تا حد امکان پایین باشه.

  8. #28
    مدیر انجمنهای سیستمهای موشکی و پدفندی,هواپیماهای پیش اخطار هوابرد و سوخترسان
    تاریخ عضویت
    Nov 2007
    محل سکونت
    Tehran
    سن
    28
    نوشته ها
    717
    سپاسگزاری
    22,136
    سپاسگزاری شده : 9,962 بار در 661 پست
    قدرت امتیازدهی
    59
    Array

    پیش فرض پاسخ : سانحه 727 ايران اير

    یکی از پیرترین هواپیماهای ایران همین IRP بود که در سال 1974 تحویل داده شد یعنی چیزی حدود 37 سال ازین هواپیما استفاده شد و آخر هم به این سرنوشت دچار شد...
    تسلیت به بازماندگان.
    نمیدونم چرا وقتی ایران یه خورده برف یا بارون می باره همش سانحه میدیم.
    مثلا فوکر ایران ایر سال 86
    فوکر آسمان امسال
    چی بگم

  9. #29
    Aviation Structural Mechanic
    تاریخ عضویت
    Dec 2009
    محل سکونت
    Tehran
    سن
    30
    نوشته ها
    193
    سپاسگزاری
    2,578
    سپاسگزاری شده : 3,049 بار در 194 پست
    قدرت امتیازدهی
    36
    Array

    پیش فرض پاسخ : سانحه 727 ايران اير

    در برنامه ي اوليه ي پرواز كمك خلبان آقاي توفيقي بودند كه با تغيير برنامه ايشون پرواز شيراز - كويت رو انجام ميدن و خلبان قره تپه جايگزين ايشون ميشوند.
    من با آقاي توفيقي صحبت كردم و خدا رو شكر ايشون در سلامت كامل هستند.

  10. #30
    شورای هوانوردی
    تاریخ عضویت
    Dec 2006
    محل سکونت
    سيستان و بلوچستان
    نوشته ها
    11,120
    سپاسگزاری
    17,262
    سپاسگزاری شده : 167,985 بار در 8,885 پست
    قدرت امتیازدهی
    1292
    Array

    پیش فرض پاسخ : سانحه 727 ايران اير


    سانحه امروز هما در اروميه مصادف است با پنجمين سالروز سانحه فالكون 20 سپاه
    پاسداران دراروميه و شهادت سردار كاظمي - 19 دي 1384

صفحه 3 از 82 نخستنخست 1234567891318234363 ... آخرینآخرین

جستارهای مشابه

  1. سانحه جامبوي ايران اير در پكن در سال 82
    توسط فانتوم 1 در انجمن ايمني و سوانح هوايي
    پاسخ ها: 10
    آخرين نوشته: 15-08-2012, 12:08
  2. 727 هاي ايران اير و اسمان
    توسط AHORA در انجمن ناوگان هما (ایران ایر)
    پاسخ ها: 7
    آخرين نوشته: 19-12-2011, 11:15
  3. تست فلايت 727 ايران اير در مهرآباد
    توسط EP-IAG در انجمن اخبار ایران ایر (هما)
    پاسخ ها: 5
    آخرين نوشته: 12-03-2010, 17:12
  4. فرود اضطراری ep-irp بوئینگ 727 هما//فوری//اختصاصی//
    توسط Ali Heydari در انجمن سوانح و حوادث غیر نظامی
    پاسخ ها: 15
    آخرين نوشته: 25-02-2009, 16:05

مجوز های ارسال و ویرایش

  • شما نمیتوانید جستار جدیدی ارسال کنید
  • شما امکان فرستادن پاسخ را ندارید
  • شما نمیتوانید فایل پیوست در نوشته خود ضمیمه کنید
  • شما نمیتوانید نوشته های خود را ویرایش کنید
  •